sensor_id;sensor_type;location;lat;lon;timestamp;P1;durP1;ratioP1;P2;durP2;ratioP2
8755;SDS011;4414;42.670;23.228;2024-02-26T00:01:56;22.60;;;12.77;;
8755;SDS011;4414;42.670;23.228;2024-02-26T00:04:22;24.92;;;13.95;;
8755;SDS011;4414;42.670;23.228;2024-02-26T00:06:47;26.58;;;12.80;;
8755;SDS011;4414;42.670;23.228;2024-02-26T00:09:15;28.08;;;12.50;;
8755;SDS011;4414;42.670;23.228;2024-02-26T00:11:40;24.08;;;12.38;;
8755;SDS011;4414;42.670;23.228;2024-02-26T00:14:06;26.42;;;12.73;;
8755;SDS011;4414;42.670;23.228;2024-02-26T00:16:31;30.13;;;12.40;;
8755;SDS011;4414;42.670;23.228;2024-02-26T00:18:57;24.80;;;12.75;;
8755;SDS011;4414;42.670;23.228;2024-02-26T00:21:22;25.85;;;12.88;;
8755;SDS011;4414;42.670;23.228;2024-02-26T00:23:52;23.10;;;12.80;;
8755;SDS011;4414;42.670;23.228;2024-02-26T00:26:18;24.58;;;12.80;;
8755;SDS011;4414;42.670;23.228;2024-02-26T00:28:44;29.13;;;13.40;;
8755;SDS011;4414;42.670;23.228;2024-02-26T00:31:09;28.73;;;13.43;;
8755;SDS011;4414;42.670;23.228;2024-02-26T00:33:34;25.50;;;13.13;;
8755;SDS011;4414;42.670;23.228;2024-02-26T00:36:00;23.75;;;13.18;;
8755;SDS011;4414;42.670;23.228;2024-02-26T00:38:25;27.52;;;13.93;;
8755;SDS011;4414;42.670;23.228;2024-02-26T00:40:51;27.33;;;13.75;;
8755;SDS011;4414;42.670;23.228;2024-02-26T00:43:16;24.30;;;12.88;;
8755;SDS011;4414;42.670;23.228;2024-02-26T00:45:41;27.27;;;14.25;;
8755;SDS011;4414;42.670;23.228;2024-02-26T00:48:07;31.85;;;14.52;;
8755;SDS011;4414;42.670;23.228;2024-02-26T00:50:33;27.20;;;12.38;;
8755;SDS011;4414;42.670;23.228;2024-02-26T00:53:01;24.23;;;13.95;;
8755;SDS011;4414;42.670;23.228;2024-02-26T00:55:27;28.85;;;14.85;;
8755;SDS011;4414;42.670;23.228;2024-02-26T00:57:52;25.80;;;14.05;;
8755;SDS011;4414;42.670;23.228;2024-02-26T01:00:18;26.48;;;13.15;;
8755;SDS011;4414;42.670;23.228;2024-02-26T01:02:43;30.50;;;14.55;;
8755;SDS011;4414;42.670;23.228;2024-02-26T01:05:11;31.27;;;13.75;;
8755;SDS011;4414;42.670;23.228;2024-02-26T01:07:37;24.48;;;12.38;;
8755;SDS011;4414;42.670;23.228;2024-02-26T01:10:04;23.65;;;13.45;;
8755;SDS011;4414;42.670;23.228;2024-02-26T01:12:30;27.83;;;13.82;;
8755;SDS011;4414;42.670;23.228;2024-02-26T01:14:57;32.72;;;14.40;;
8755;SDS011;4414;42.670;23.228;2024-02-26T01:17:22;28.42;;;13.20;;
8755;SDS011;4414;42.670;23.228;2024-02-26T01:19:47;26.30;;;13.82;;
8755;SDS011;4414;42.670;23.228;2024-02-26T01:22:13;30.40;;;15.83;;
8755;SDS011;4414;42.670;23.228;2024-02-26T01:24:38;32.13;;;14.45;;
8755;SDS011;4414;42.670;23.228;2024-02-26T01:27:04;24.17;;;14.90;;
8755;SDS011;4414;42.670;23.228;2024-02-26T01:29:29;25.88;;;14.18;;
8755;SDS011;4414;42.670;23.228;2024-02-26T01:31:55;25.92;;;14.45;;
8755;SDS011;4414;42.670;23.228;2024-02-26T01:34:21;30.00;;;15.25;;
8755;SDS011;4414;42.670;23.228;2024-02-26T01:36:46;24.88;;;14.38;;
8755;SDS011;4414;42.670;23.228;2024-02-26T01:39:12;27.38;;;14.98;;
8755;SDS011;4414;42.670;23.228;2024-02-26T01:41:40;25.27;;;14.43;;
8755;SDS011;4414;42.670;23.228;2024-02-26T01:44:06;29.95;;;14.27;;
8755;SDS011;4414;42.670;23.228;2024-02-26T01:46:32;26.73;;;14.23;;
8755;SDS011;4414;42.670;23.228;2024-02-26T01:48:59;34.72;;;14.95;;
8755;SDS011;4414;42.670;23.228;2024-02-26T01:51:26;30.90;;;14.40;;
8755;SDS011;4414;42.670;23.228;2024-02-26T01:53:52;32.20;;;16.55;;
8755;SDS011;4414;42.670;23.228;2024-02-26T01:56:18;29.33;;;14.98;;
8755;SDS011;4414;42.670;23.228;2024-02-26T01:58:46;27.55;;;14.52;;
8755;SDS011;4414;42.670;23.228;2024-02-26T02:01:12;31.83;;;15.50;;
8755;SDS011;4414;42.670;23.228;2024-02-26T02:03:38;28.77;;;14.55;;
8755;SDS011;4414;42.670;23.228;2024-02-26T02:06:04;31.98;;;15.27;;
8755;SDS011;4414;42.670;23.228;2024-02-26T02:08:30;26.90;;;13.25;;
8755;SDS011;4414;42.670;23.228;2024-02-26T02:10:56;26.45;;;12.80;;
8755;SDS011;4414;42.670;23.228;2024-02-26T02:13:21;27.90;;;13.20;;
8755;SDS011;4414;42.670;23.228;2024-02-26T02:15:47;23.23;;;12.55;;
8755;SDS011;4414;42.670;23.228;2024-02-26T02:18:12;23.92;;;10.05;;
8755;SDS011;4414;42.670;23.228;2024-02-26T02:20:38;22.38;;;11.15;;
8755;SDS011;4414;42.670;23.228;2024-02-26T02:23:03;21.80;;;11.55;;
8755;SDS011;4414;42.670;23.228;2024-02-26T02:25:29;25.83;;;11.77;;
8755;SDS011;4414;42.670;23.228;2024-02-26T02:27:54;20.52;;;10.75;;
8755;SDS011;4414;42.670;23.228;2024-02-26T02:30:21;20.02;;;10.75;;
8755;SDS011;4414;42.670;23.228;2024-02-26T02:32:49;20.92;;;9.85;;
8755;SDS011;4414;42.670;23.228;2024-02-26T02:35:14;22.48;;;10.27;;
8755;SDS011;4414;42.670;23.228;2024-02-26T02:37:39;22.05;;;11.90;;
8755;SDS011;4414;42.670;23.228;2024-02-26T02:40:05;22.23;;;10.65;;
8755;SDS011;4414;42.670;23.228;2024-02-26T02:42:31;17.88;;;9.77;;
8755;SDS011;4414;42.670;23.228;2024-02-26T02:44:57;18.63;;;10.48;;
8755;SDS011;4414;42.670;23.228;2024-02-26T02:47:22;18.33;;;10.20;;
8755;SDS011;4414;42.670;23.228;2024-02-26T02:49:47;21.13;;;9.90;;
8755;SDS011;4414;42.670;23.228;2024-02-26T02:52:13;18.88;;;9.55;;
8755;SDS011;4414;42.670;23.228;2024-02-26T02:54:38;17.27;;;9.25;;
8755;SDS011;4414;42.670;23.228;2024-02-26T02:57:06;16.77;;;8.98;;
8755;SDS011;4414;42.670;23.228;2024-02-26T02:59:32;21.35;;;10.63;;
8755;SDS011;4414;42.670;23.228;2024-02-26T03:01:57;15.88;;;8.23;;
8755;SDS011;4414;42.670;23.228;2024-02-26T03:04:22;19.00;;;10.65;;
8755;SDS011;4414;42.670;23.228;2024-02-26T03:06:48;18.23;;;9.20;;
8755;SDS011;4414;42.670;23.228;2024-02-26T03:09:13;19.27;;;9.55;;
8755;SDS011;4414;42.670;23.228;2024-02-26T03:11:39;17.45;;;10.68;;
8755;SDS011;4414;42.670;23.228;2024-02-26T03:14:04;21.90;;;10.13;;
8755;SDS011;4414;42.670;23.228;2024-02-26T03:16:31;20.75;;;11.30;;
8755;SDS011;4414;42.670;23.228;2024-02-26T03:18:56;21.83;;;10.93;;
8755;SDS011;4414;42.670;23.228;2024-02-26T03:21:22;20.00;;;11.10;;
8755;SDS011;4414;42.670;23.228;2024-02-26T03:23:47;21.25;;;12.00;;
8755;SDS011;4414;42.670;23.228;2024-02-26T03:26:13;22.48;;;11.32;;
8755;SDS011;4414;42.670;23.228;2024-02-26T03:28:39;18.20;;;10.93;;
8755;SDS011;4414;42.670;23.228;2024-02-26T03:31:05;18.80;;;10.35;;
8755;SDS011;4414;42.670;23.228;2024-02-26T03:33:31;22.52;;;11.30;;
8755;SDS011;4414;42.670;23.228;2024-02-26T03:35:56;21.67;;;10.57;;
8755;SDS011;4414;42.670;23.228;2024-02-26T03:38:21;23.70;;;13.02;;
8755;SDS011;4414;42.670;23.228;2024-02-26T03:40:47;23.95;;;11.13;;
8755;SDS011;4414;42.670;23.228;2024-02-26T03:43:14;24.35;;;11.05;;
8755;SDS011;4414;42.670;23.228;2024-02-26T03:45:39;19.92;;;10.35;;
8755;SDS011;4414;42.670;23.228;2024-02-26T03:48:05;23.75;;;12.05;;
8755;SDS011;4414;42.670;23.228;2024-02-26T03:50:30;20.88;;;10.65;;
8755;SDS011;4414;42.670;23.228;2024-02-26T03:52:56;20.88;;;10.13;;
8755;SDS011;4414;42.670;23.228;2024-02-26T03:55:22;16.85;;;8.95;;
8755;SDS011;4414;42.670;23.228;2024-02-26T03:57:50;20.55;;;9.25;;
8755;SDS011;4414;42.670;23.228;2024-02-26T04:00:16;17.60;;;9.40;;
8755;SDS011;4414;42.670;23.228;2024-02-26T04:02:42;23.73;;;10.55;;
8755;SDS011;4414;42.670;23.228;2024-02-26T04:05:11;16.95;;;8.55;;
8755;SDS011;4414;42.670;23.228;2024-02-26T04:07:36;24.75;;;12.80;;
8755;SDS011;4414;42.670;23.228;2024-02-26T04:10:02;27.88;;;12.98;;
8755;SDS011;4414;42.670;23.228;2024-02-26T04:12:30;24.67;;;12.27;;
8755;SDS011;4414;42.670;23.228;2024-02-26T04:14:55;20.38;;;11.98;;
8755;SDS011;4414;42.670;23.228;2024-02-26T04:17:21;21.23;;;11.88;;
8755;SDS011;4414;42.670;23.228;2024-02-26T04:19:46;21.77;;;13.18;;
8755;SDS011;4414;42.670;23.228;2024-02-26T04:22:12;24.90;;;12.50;;
8755;SDS011;4414;42.670;23.228;2024-02-26T04:24:37;20.58;;;11.80;;
8755;SDS011;4414;42.670;23.228;2024-02-26T04:27:03;21.63;;;12.07;;
8755;SDS011;4414;42.670;23.228;2024-02-26T04:29:28;25.55;;;12.90;;
8755;SDS011;4414;42.670;23.228;2024-02-26T04:31:53;25.52;;;13.80;;
8755;SDS011;4414;42.670;23.228;2024-02-26T04:34:19;26.83;;;12.77;;
8755;SDS011;4414;42.670;23.228;2024-02-26T04:36:44;25.17;;;11.90;;
8755;SDS011;4414;42.670;23.228;2024-02-26T04:39:10;24.65;;;11.82;;
8755;SDS011;4414;42.670;23.228;2024-02-26T04:41:35;27.08;;;12.63;;
8755;SDS011;4414;42.670;23.228;2024-02-26T04:44:01;23.83;;;12.15;;
8755;SDS011;4414;42.670;23.228;2024-02-26T04:46:27;24.25;;;14.13;;
8755;SDS011;4414;42.670;23.228;2024-02-26T04:48:53;24.85;;;13.35;;
8755;SDS011;4414;42.670;23.228;2024-02-26T04:51:19;26.65;;;13.57;;
8755;SDS011;4414;42.670;23.228;2024-02-26T04:53:44;29.67;;;13.70;;
8755;SDS011;4414;42.670;23.228;2024-02-26T04:56:09;24.92;;;12.32;;
8755;SDS011;4414;42.670;23.228;2024-02-26T04:58:35;25.73;;;13.95;;
8755;SDS011;4414;42.670;23.228;2024-02-26T05:01:00;23.63;;;14.00;;
8755;SDS011;4414;42.670;23.228;2024-02-26T05:03:26;25.40;;;14.32;;
8755;SDS011;4414;42.670;23.228;2024-02-26T05:05:51;27.02;;;13.75;;
8755;SDS011;4414;42.670;23.228;2024-02-26T05:08:17;23.50;;;13.90;;
8755;SDS011;4414;42.670;23.228;2024-02-26T05:10:42;22.98;;;13.52;;
8755;SDS011;4414;42.670;23.228;2024-02-26T05:13:10;25.83;;;15.30;;
8755;SDS011;4414;42.670;23.228;2024-02-26T05:15:36;28.23;;;15.02;;
8755;SDS011;4414;42.670;23.228;2024-02-26T05:18:01;26.05;;;14.80;;
8755;SDS011;4414;42.670;23.228;2024-02-26T05:20:27;26.10;;;14.10;;
8755;SDS011;4414;42.670;23.228;2024-02-26T05:22:53;25.50;;;13.52;;
8755;SDS011;4414;42.670;23.228;2024-02-26T05:25:19;26.75;;;14.07;;
8755;SDS011;4414;42.670;23.228;2024-02-26T05:27:44;23.17;;;13.63;;
8755;SDS011;4414;42.670;23.228;2024-02-26T05:30:12;26.63;;;12.45;;
8755;SDS011;4414;42.670;23.228;2024-02-26T05:32:37;25.42;;;14.15;;
8755;SDS011;4414;42.670;23.228;2024-02-26T05:35:03;19.13;;;11.37;;
8755;SDS011;4414;42.670;23.228;2024-02-26T05:37:29;28.38;;;14.35;;
8755;SDS011;4414;42.670;23.228;2024-02-26T05:39:55;26.60;;;14.30;;
8755;SDS011;4414;42.670;23.228;2024-02-26T05:42:20;26.60;;;13.27;;
8755;SDS011;4414;42.670;23.228;2024-02-26T05:44:46;29.00;;;14.55;;
8755;SDS011;4414;42.670;23.228;2024-02-26T05:47:11;23.48;;;13.88;;
8755;SDS011;4414;42.670;23.228;2024-02-26T05:49:37;25.50;;;14.15;;
8755;SDS011;4414;42.670;23.228;2024-02-26T05:52:02;25.52;;;12.75;;
8755;SDS011;4414;42.670;23.228;2024-02-26T05:54:28;26.65;;;13.05;;
8755;SDS011;4414;42.670;23.228;2024-02-26T05:56:53;25.55;;;13.50;;
8755;SDS011;4414;42.670;23.228;2024-02-26T05:59:19;24.17;;;12.87;;
8755;SDS011;4414;42.670;23.228;2024-02-26T06:01:44;25.48;;;12.75;;
8755;SDS011;4414;42.670;23.228;2024-02-26T06:04:10;25.70;;;14.10;;
8755;SDS011;4414;42.670;23.228;2024-02-26T06:06:36;23.25;;;12.73;;
8755;SDS011;4414;42.670;23.228;2024-02-26T06:09:02;23.17;;;13.17;;
8755;SDS011;4414;42.670;23.228;2024-02-26T06:11:30;25.13;;;13.30;;
8755;SDS011;4414;42.670;23.228;2024-02-26T06:13:55;28.60;;;13.93;;
8755;SDS011;4414;42.670;23.228;2024-02-26T06:16:21;25.63;;;14.18;;
8755;SDS011;4414;42.670;23.228;2024-02-26T06:18:47;30.27;;;14.77;;
8755;SDS011;4414;42.670;23.228;2024-02-26T06:21:12;25.38;;;14.82;;
8755;SDS011;4414;42.670;23.228;2024-02-26T06:23:38;28.42;;;13.95;;
8755;SDS011;4414;42.670;23.228;2024-02-26T06:26:06;29.50;;;14.43;;
8755;SDS011;4414;42.670;23.228;2024-02-26T06:28:31;24.55;;;13.32;;
8755;SDS011;4414;42.670;23.228;2024-02-26T06:30:58;27.42;;;14.40;;
8755;SDS011;4414;42.670;23.228;2024-02-26T06:33:24;21.42;;;12.80;;
8755;SDS011;4414;42.670;23.228;2024-02-26T06:35:49;27.00;;;13.68;;
8755;SDS011;4414;42.670;23.228;2024-02-26T06:38:15;22.83;;;12.95;;
8755;SDS011;4414;42.670;23.228;2024-02-26T06:40:40;24.40;;;12.85;;
8755;SDS011;4414;42.670;23.228;2024-02-26T06:43:06;25.02;;;13.35;;
8755;SDS011;4414;42.670;23.228;2024-02-26T06:45:31;22.88;;;11.82;;
8755;SDS011;4414;42.670;23.228;2024-02-26T06:47:57;39.58;;;16.77;;
8755;SDS011;4414;42.670;23.228;2024-02-26T06:50:23;22.38;;;12.25;;
8755;SDS011;4414;42.670;23.228;2024-02-26T06:52:48;24.83;;;14.32;;
8755;SDS011;4414;42.670;23.228;2024-02-26T06:55:14;32.38;;;15.15;;
8755;SDS011;4414;42.670;23.228;2024-02-26T06:57:39;23.27;;;13.18;;
8755;SDS011;4414;42.670;23.228;2024-02-26T07:00:05;24.63;;;12.27;;
8755;SDS011;4414;42.670;23.228;2024-02-26T07:02:31;40.75;;;18.08;;
8755;SDS011;4414;42.670;23.228;2024-02-26T07:04:56;34.25;;;17.33;;
8755;SDS011;4414;42.670;23.228;2024-02-26T07:07:23;24.13;;;13.23;;
8755;SDS011;4414;42.670;23.228;2024-02-26T07:09:49;26.08;;;15.88;;
8755;SDS011;4414;42.670;23.228;2024-02-26T07:12:14;32.75;;;16.55;;
8755;SDS011;4414;42.670;23.228;2024-02-26T07:14:41;29.30;;;16.17;;
8755;SDS011;4414;42.670;23.228;2024-02-26T07:17:06;30.23;;;15.63;;
8755;SDS011;4414;42.670;23.228;2024-02-26T07:19:33;26.85;;;14.35;;
8755;SDS011;4414;42.670;23.228;2024-02-26T07:21:58;39.35;;;20.27;;
8755;SDS011;4414;42.670;23.228;2024-02-26T07:24:26;28.08;;;16.40;;
8755;SDS011;4414;42.670;23.228;2024-02-26T07:26:53;34.92;;;17.88;;
8755;SDS011;4414;42.670;23.228;2024-02-26T07:29:20;30.40;;;14.45;;
8755;SDS011;4414;42.670;23.228;2024-02-26T07:31:46;27.33;;;15.32;;
8755;SDS011;4414;42.670;23.228;2024-02-26T07:34:12;40.25;;;17.52;;
8755;SDS011;4414;42.670;23.228;2024-02-26T07:36:37;43.72;;;18.80;;
8755;SDS011;4414;42.670;23.228;2024-02-26T07:39:02;31.70;;;16.27;;
8755;SDS011;4414;42.670;23.228;2024-02-26T07:41:28;27.60;;;14.95;;
8755;SDS011;4414;42.670;23.228;2024-02-26T07:43:53;32.03;;;15.77;;
8755;SDS011;4414;42.670;23.228;2024-02-26T07:46:19;29.92;;;17.05;;
8755;SDS011;4414;42.670;23.228;2024-02-26T07:48:44;31.10;;;16.55;;
8755;SDS011;4414;42.670;23.228;2024-02-26T07:51:12;31.35;;;16.38;;
8755;SDS011;4414;42.670;23.228;2024-02-26T07:53:39;34.78;;;15.50;;
8755;SDS011;4414;42.670;23.228;2024-02-26T07:56:04;26.92;;;15.73;;
8755;SDS011;4414;42.670;23.228;2024-02-26T07:58:29;24.33;;;14.57;;
8755;SDS011;4414;42.670;23.228;2024-02-26T08:00:55;27.83;;;16.60;;
8755;SDS011;4414;42.670;23.228;2024-02-26T08:03:20;31.35;;;16.13;;
8755;SDS011;4414;42.670;23.228;2024-02-26T08:05:46;31.60;;;15.52;;
8755;SDS011;4414;42.670;23.228;2024-02-26T08:08:11;31.48;;;15.07;;
8755;SDS011;4414;42.670;23.228;2024-02-26T08:10:37;27.98;;;16.10;;
8755;SDS011;4414;42.670;23.228;2024-02-26T08:13:02;23.77;;;14.35;;
8755;SDS011;4414;42.670;23.228;2024-02-26T08:15:31;19.50;;;13.60;;
8755;SDS011;4414;42.670;23.228;2024-02-26T08:17:59;27.15;;;13.68;;
8755;SDS011;4414;42.670;23.228;2024-02-26T08:20:27;26.67;;;14.55;;
8755;SDS011;4414;42.670;23.228;2024-02-26T08:22:53;20.80;;;11.50;;
8755;SDS011;4414;42.670;23.228;2024-02-26T08:25:18;22.02;;;14.40;;
8755;SDS011;4414;42.670;23.228;2024-02-26T08:27:44;25.58;;;14.45;;
8755;SDS011;4414;42.670;23.228;2024-02-26T08:30:09;21.77;;;12.90;;
8755;SDS011;4414;42.670;23.228;2024-02-26T08:32:35;26.38;;;14.18;;
8755;SDS011;4414;42.670;23.228;2024-02-26T08:35:01;25.88;;;14.60;;
8755;SDS011;4414;42.670;23.228;2024-02-26T08:37:26;28.05;;;16.52;;
8755;SDS011;4414;42.670;23.228;2024-02-26T08:39:52;28.47;;;14.90;;
8755;SDS011;4414;42.670;23.228;2024-02-26T08:42:17;26.33;;;14.20;;
8755;SDS011;4414;42.670;23.228;2024-02-26T08:44:42;33.10;;;15.43;;
8755;SDS011;4414;42.670;23.228;2024-02-26T08:47:08;30.33;;;15.43;;
8755;SDS011;4414;42.670;23.228;2024-02-26T08:49:33;29.33;;;15.63;;
8755;SDS011;4414;42.670;23.228;2024-02-26T08:51:58;32.55;;;17.05;;
8755;SDS011;4414;42.670;23.228;2024-02-26T08:54:24;30.37;;;14.73;;
8755;SDS011;4414;42.670;23.228;2024-02-26T08:56:49;32.83;;;15.70;;
8755;SDS011;4414;42.670;23.228;2024-02-26T08:59:15;27.77;;;15.40;;
8755;SDS011;4414;42.670;23.228;2024-02-26T09:01:41;25.63;;;15.48;;
8755;SDS011;4414;42.670;23.228;2024-02-26T09:04:07;35.85;;;16.30;;
8755;SDS011;4414;42.670;23.228;2024-02-26T09:06:32;29.77;;;17.63;;
8755;SDS011;4414;42.670;23.228;2024-02-26T09:08:57;29.20;;;17.42;;
8755;SDS011;4414;42.670;23.228;2024-02-26T09:11:23;31.80;;;16.50;;
8755;SDS011;4414;42.670;23.228;2024-02-26T09:13:48;27.58;;;15.45;;
8755;SDS011;4414;42.670;23.228;2024-02-26T09:16:14;26.23;;;15.25;;
8755;SDS011;4414;42.670;23.228;2024-02-26T09:18:39;29.73;;;14.70;;
8755;SDS011;4414;42.670;23.228;2024-02-26T09:21:05;25.48;;;14.98;;
8755;SDS011;4414;42.670;23.228;2024-02-26T09:23:33;26.00;;;16.90;;
8755;SDS011;4414;42.670;23.228;2024-02-26T09:26:00;28.77;;;16.05;;
8755;SDS011;4414;42.670;23.228;2024-02-26T09:28:25;27.45;;;16.13;;
8755;SDS011;4414;42.670;23.228;2024-02-26T09:30:50;26.65;;;15.85;;
8755;SDS011;4414;42.670;23.228;2024-02-26T09:33:16;23.52;;;15.25;;
8755;SDS011;4414;42.670;23.228;2024-02-26T09:35:41;28.52;;;16.02;;
8755;SDS011;4414;42.670;23.228;2024-02-26T09:38:07;28.92;;;15.63;;
8755;SDS011;4414;42.670;23.228;2024-02-26T09:40:32;29.67;;;15.80;;
8755;SDS011;4414;42.670;23.228;2024-02-26T09:43:00;23.13;;;15.25;;
8755;SDS011;4414;42.670;23.228;2024-02-26T09:45:29;27.90;;;14.77;;
8755;SDS011;4414;42.670;23.228;2024-02-26T09:47:57;31.50;;;14.90;;
8755;SDS011;4414;42.670;23.228;2024-02-26T09:50:23;26.05;;;12.93;;
8755;SDS011;4414;42.670;23.228;2024-02-26T09:52:49;25.70;;;15.25;;
8755;SDS011;4414;42.670;23.228;2024-02-26T09:55:16;31.65;;;15.68;;
8755;SDS011;4414;42.670;23.228;2024-02-26T09:57:45;22.15;;;14.35;;
8755;SDS011;4414;42.670;23.228;2024-02-26T10:00:15;27.90;;;15.82;;
8755;SDS011;4414;42.670;23.228;2024-02-26T10:02:45;21.98;;;14.38;;
8755;SDS011;4414;42.670;23.228;2024-02-26T10:05:12;20.77;;;12.95;;
8755;SDS011;4414;42.670;23.228;2024-02-26T10:07:42;24.05;;;13.05;;
8755;SDS011;4414;42.670;23.228;2024-02-26T10:10:09;20.75;;;11.38;;
8755;SDS011;4414;42.670;23.228;2024-02-26T10:12:34;16.02;;;10.32;;
8755;SDS011;4414;42.670;23.228;2024-02-26T10:15:00;20.95;;;10.80;;
8755;SDS011;4414;42.670;23.228;2024-02-26T10:17:26;17.63;;;10.55;;
8755;SDS011;4414;42.670;23.228;2024-02-26T10:19:51;25.13;;;10.90;;
8755;SDS011;4414;42.670;23.228;2024-02-26T10:22:21;21.45;;;10.40;;
8755;SDS011;4414;42.670;23.228;2024-02-26T10:24:47;21.98;;;9.88;;
8755;SDS011;4414;42.670;23.228;2024-02-26T10:27:13;10.40;;;6.47;;
8755;SDS011;4414;42.670;23.228;2024-02-26T10:29:40;7.85;;;4.20;;
8755;SDS011;4414;42.670;23.228;2024-02-26T10:32:08;11.50;;;5.70;;
8755;SDS011;4414;42.670;23.228;2024-02-26T10:34:34;8.82;;;3.63;;
8755;SDS011;4414;42.670;23.228;2024-02-26T10:37:02;11.25;;;5.13;;
8755;SDS011;4414;42.670;23.228;2024-02-26T10:39:28;10.13;;;4.18;;
8755;SDS011;4414;42.670;23.228;2024-02-26T10:41:53;9.73;;;5.35;;
8755;SDS011;4414;42.670;23.228;2024-02-26T10:44:19;5.47;;;4.30;;
8755;SDS011;4414;42.670;23.228;2024-02-26T10:46:44;9.35;;;4.68;;
8755;SDS011;4414;42.670;23.228;2024-02-26T10:49:14;6.40;;;4.03;;
8755;SDS011;4414;42.670;23.228;2024-02-26T10:51:43;9.55;;;4.70;;
8755;SDS011;4414;42.670;23.228;2024-02-26T10:54:10;10.25;;;4.38;;
8755;SDS011;4414;42.670;23.228;2024-02-26T10:56:40;7.72;;;4.18;;
8755;SDS011;4414;42.670;23.228;2024-02-26T10:59:08;8.93;;;4.63;;
8755;SDS011;4414;42.670;23.228;2024-02-26T11:01:35;5.82;;;3.80;;
8755;SDS011;4414;42.670;23.228;2024-02-26T11:04:03;9.00;;;4.43;;
8755;SDS011;4414;42.670;23.228;2024-02-26T11:06:30;8.23;;;4.40;;
8755;SDS011;4414;42.670;23.228;2024-02-26T11:08:55;9.63;;;4.10;;
8755;SDS011;4414;42.670;23.228;2024-02-26T11:14:53;7.63;;;4.50;;
8755;SDS011;4414;42.670;23.228;2024-02-26T11:17:22;6.70;;;4.10;;
8755;SDS011;4414;42.670;23.228;2024-02-26T11:19:51;8.00;;;5.13;;
8755;SDS011;4414;42.670;23.228;2024-02-26T11:22:18;5.22;;;3.72;;
8755;SDS011;4414;42.670;23.228;2024-02-26T11:24:46;9.85;;;5.43;;
8755;SDS011;4414;42.670;23.228;2024-02-26T11:27:12;9.10;;;4.15;;
8755;SDS011;4414;42.670;23.228;2024-02-26T11:29:44;8.77;;;4.20;;
8755;SDS011;4414;42.670;23.228;2024-02-26T11:32:14;7.78;;;4.43;;
8755;SDS011;4414;42.670;23.228;2024-02-26T11:34:39;5.88;;;4.00;;
8755;SDS011;4414;42.670;23.228;2024-02-26T11:37:09;7.10;;;4.70;;
8755;SDS011;4414;42.670;23.228;2024-02-26T11:39:41;6.53;;;4.20;;
8755;SDS011;4414;42.670;23.228;2024-02-26T11:42:07;5.47;;;4.00;;
8755;SDS011;4414;42.670;23.228;2024-02-26T11:44:34;9.55;;;4.85;;
8755;SDS011;4414;42.670;23.228;2024-02-26T11:47:10;5.18;;;4.35;;
8755;SDS011;4414;42.670;23.228;2024-02-26T11:49:53;8.35;;;4.38;;
8755;SDS011;4414;42.670;23.228;2024-02-26T11:52:18;8.55;;;3.85;;
8755;SDS011;4414;42.670;23.228;2024-02-26T11:54:51;5.88;;;4.25;;
8755;SDS011;4414;42.670;23.228;2024-02-26T11:57:21;7.20;;;4.53;;
8755;SDS011;4414;42.670;23.228;2024-02-26T11:59:50;8.85;;;4.47;;
8755;SDS011;4414;42.670;23.228;2024-02-26T12:02:38;9.10;;;5.38;;
8755;SDS011;4414;42.670;23.228;2024-02-26T12:05:13;6.28;;;3.78;;
8755;SDS011;4414;42.670;23.228;2024-02-26T12:08:10;8.70;;;3.97;;
8755;SDS011;4414;42.670;23.228;2024-02-26T12:10:37;7.43;;;4.63;;
8755;SDS011;4414;42.670;23.228;2024-02-26T12:13:05;6.72;;;4.50;;
8755;SDS011;4414;42.670;23.228;2024-02-26T12:15:33;10.52;;;5.00;;
8755;SDS011;4414;42.670;23.228;2024-02-26T12:18:02;8.05;;;4.90;;
8755;SDS011;4414;42.670;23.228;2024-02-26T12:20:29;7.00;;;3.63;;
8755;SDS011;4414;42.670;23.228;2024-02-26T12:22:55;6.15;;;3.72;;
8755;SDS011;4414;42.670;23.228;2024-02-26T12:25:25;8.45;;;3.75;;
8755;SDS011;4414;42.670;23.228;2024-02-26T12:27:52;7.30;;;3.80;;
8755;SDS011;4414;42.670;23.228;2024-02-26T12:30:18;5.53;;;3.75;;
8755;SDS011;4414;42.670;23.228;2024-02-26T12:32:44;9.05;;;4.10;;
8755;SDS011;4414;42.670;23.228;2024-02-26T12:35:14;5.82;;;3.72;;
8755;SDS011;4414;42.670;23.228;2024-02-26T12:37:41;8.27;;;4.68;;
8755;SDS011;4414;42.670;23.228;2024-02-26T12:40:07;5.80;;;4.10;;
8755;SDS011;4414;42.670;23.228;2024-02-26T12:42:34;4.55;;;3.15;;
8755;SDS011;4414;42.670;23.228;2024-02-26T12:45:05;5.47;;;4.10;;
8755;SDS011;4414;42.670;23.228;2024-02-26T12:47:35;9.07;;;3.72;;
8755;SDS011;4414;42.670;23.228;2024-02-26T12:50:02;6.55;;;3.63;;
8755;SDS011;4414;42.670;23.228;2024-02-26T12:52:29;7.75;;;3.85;;
8755;SDS011;4414;42.670;23.228;2024-02-26T12:54:58;6.47;;;4.20;;
8755;SDS011;4414;42.670;23.228;2024-02-26T12:57:24;6.38;;;3.40;;
8755;SDS011;4414;42.670;23.228;2024-02-26T12:59:50;12.82;;;3.65;;
8755;SDS011;4414;42.670;23.228;2024-02-26T13:02:16;6.00;;;3.60;;
8755;SDS011;4414;42.670;23.228;2024-02-26T13:04:41;14.30;;;4.07;;
8755;SDS011;4414;42.670;23.228;2024-02-26T13:07:09;8.75;;;3.72;;
8755;SDS011;4414;42.670;23.228;2024-02-26T13:09:34;8.88;;;4.38;;
8755;SDS011;4414;42.670;23.228;2024-02-26T13:12:03;10.18;;;3.70;;
8755;SDS011;4414;42.670;23.228;2024-02-26T13:14:29;6.60;;;3.83;;
8755;SDS011;4414;42.670;23.228;2024-02-26T13:16:59;7.55;;;3.20;;
8755;SDS011;4414;42.670;23.228;2024-02-26T13:19:26;5.15;;;3.53;;
8755;SDS011;4414;42.670;23.228;2024-02-26T13:21:52;6.45;;;3.72;;
8755;SDS011;4414;42.670;23.228;2024-02-26T13:24:21;6.78;;;3.50;;
8755;SDS011;4414;42.670;23.228;2024-02-26T13:26:57;8.55;;;3.10;;
8755;SDS011;4414;42.670;23.228;2024-02-26T13:29:22;6.47;;;3.17;;
8755;SDS011;4414;42.670;23.228;2024-02-26T13:31:54;5.90;;;3.28;;
8755;SDS011;4414;42.670;23.228;2024-02-26T13:34:23;5.03;;;2.95;;
8755;SDS011;4414;42.670;23.228;2024-02-26T13:36:50;7.00;;;4.18;;
8755;SDS011;4414;42.670;23.228;2024-02-26T13:39:21;5.50;;;2.75;;
8755;SDS011;4414;42.670;23.228;2024-02-26T13:41:51;5.07;;;2.45;;
8755;SDS011;4414;42.670;23.228;2024-02-26T13:44:17;6.38;;;3.33;;
8755;SDS011;4414;42.670;23.228;2024-02-26T13:46:43;7.75;;;3.05;;
8755;SDS011;4414;42.670;23.228;2024-02-26T13:49:08;3.88;;;2.65;;
8755;SDS011;4414;42.670;23.228;2024-02-26T13:51:35;5.45;;;3.05;;
8755;SDS011;4414;42.670;23.228;2024-02-26T13:54:02;5.40;;;3.55;;
8755;SDS011;4414;42.670;23.228;2024-02-26T13:56:28;5.90;;;3.28;;
8755;SDS011;4414;42.670;23.228;2024-02-26T13:58:53;7.80;;;3.35;;
8755;SDS011;4414;42.670;23.228;2024-02-26T14:01:18;5.32;;;2.50;;
8755;SDS011;4414;42.670;23.228;2024-02-26T14:03:44;5.32;;;2.40;;
8755;SDS011;4414;42.670;23.228;2024-02-26T14:06:10;4.63;;;3.08;;
8755;SDS011;4414;42.670;23.228;2024-02-26T14:08:36;5.40;;;3.40;;
8755;SDS011;4414;42.670;23.228;2024-02-26T14:11:01;5.40;;;3.17;;
8755;SDS011;4414;42.670;23.228;2024-02-26T14:13:27;6.47;;;2.80;;
8755;SDS011;4414;42.670;23.228;2024-02-26T14:15:52;6.45;;;3.10;;
8755;SDS011;4414;42.670;23.228;2024-02-26T14:18:17;7.15;;;3.25;;
8755;SDS011;4414;42.670;23.228;2024-02-26T14:20:43;7.03;;;3.30;;
8755;SDS011;4414;42.670;23.228;2024-02-26T14:23:09;5.43;;;2.92;;
8755;SDS011;4414;42.670;23.228;2024-02-26T14:25:35;4.85;;;2.90;;
8755;SDS011;4414;42.670;23.228;2024-02-26T14:28:01;5.43;;;2.42;;
8755;SDS011;4414;42.670;23.228;2024-02-26T14:30:27;5.35;;;2.88;;
8755;SDS011;4414;42.670;23.228;2024-02-26T14:32:52;6.35;;;3.15;;
8755;SDS011;4414;42.670;23.228;2024-02-26T14:35:18;6.50;;;2.75;;
8755;SDS011;4414;42.670;23.228;2024-02-26T14:37:44;8.25;;;3.20;;
8755;SDS011;4414;42.670;23.228;2024-02-26T14:40:11;5.63;;;2.35;;
8755;SDS011;4414;42.670;23.228;2024-02-26T14:42:37;6.93;;;3.13;;